Capitao Andrade, Brazil
Current Conditions -  °F | °C
As of 9:00 AM on Friday 24 Oct 2014 (Local Time) from SBIP Reporting Station
Broken Clouds Broken Clouds  
Wind Chill: 75°   Ceiling: 3000
Heat Index: 75°   Visibility: 6mi
Dew Point: 59°   Wind: 8mph
Humidity: 57%   Direction: 60°ENE
Pressure: 30.09"   Gusts: NA
Location:  19.07°S, 41.86°W
Report Text: SBIP 241100Z 06007KT 9999 BKN030 24/15 Q1019
Loading
Personal Weather Stations






























Interactive Weather Map
Tropical Storm Tracking
New forecast layout! Learn more

10-Day Weather Forecast

Advertisements
Track Severe Weather on mobile